createdAt,value
2023-01-12T00:02:12.259Z,100008.03
2023-01-12T00:04:40.490Z,100011.28
2023-01-12T00:07:09.013Z,100005.22
2023-01-12T00:09:37.530Z,100009.75
2023-01-12T00:12:07.086Z,100000.34
2023-01-12T00:14:35.106Z,100017.00
2023-01-12T00:17:03.438Z,100013.75
2023-01-12T00:19:33.445Z,100015.13
2023-01-12T00:22:07.133Z,100005.84
2023-01-12T00:24:36.887Z,100015.22
2023-01-12T00:27:06.812Z,100014.19
2023-01-12T00:29:34.903Z,100033.53
2023-01-12T00:32:02.898Z,100024.28
2023-01-12T00:34:32.340Z,100041.03
2023-01-12T00:37:01.601Z,100031.81
2023-01-12T00:39:29.544Z,100035.91
2023-01-12T00:42:15.154Z,100039.16
2023-01-12T00:45:00.665Z,100030.09
2023-01-12T00:47:28.548Z,100011.88
2023-01-12T00:49:57.753Z,99991.13
2023-01-12T00:52:30.808Z,99979.34
2023-01-12T00:54:59.521Z,99990.97
2023-01-12T00:57:28.199Z,100000.09
2023-01-12T00:59:58.307Z,100000.91
2023-01-12T01:02:27.218Z,100005.00
2023-01-12T01:04:55.106Z,99994.81
2023-01-12T01:07:24.549Z,100003.63
2023-01-12T01:09:52.804Z,99989.28
2023-01-12T01:12:21.160Z,99993.56
2023-01-12T01:14:49.608Z,99992.19
2023-01-12T01:17:17.801Z,100003.28
2023-01-12T01:19:45.743Z,100009.09
2023-01-12T01:22:13.626Z,99999.03
2023-01-12T01:24:43.345Z,99996.38
2023-01-12T01:27:11.262Z,100004.06
2023-01-12T01:29:39.036Z,100016.16
2023-01-12T01:32:07.465Z,100022.13
2023-01-12T01:34:35.637Z,100016.47
2023-01-12T01:37:03.483Z,100026.38
2023-01-12T01:39:31.399Z,100028.47
2023-01-12T01:42:01.142Z,100025.97
2023-01-12T01:44:51.770Z,100025.41
2023-01-12T01:47:27.833Z,100022.75
2023-01-12T01:49:58.659Z,100027.09
2023-01-12T01:52:31.594Z,100006.69
2023-01-12T01:55:03.985Z,100011.66
2023-01-12T01:57:37.696Z,100002.16
2023-01-12T02:00:08.897Z,100028.81
2023-01-12T02:02:37.869Z,100031.81
2023-01-12T02:05:06.656Z,100027.75
2023-01-12T02:07:34.920Z,100032.03
2023-01-12T02:10:03.215Z,100033.75
2023-01-12T02:12:48.820Z,100033.75
2023-01-12T02:15:36.404Z,100036.31
2023-01-12T02:18:14.964Z,100033.75
2023-01-12T02:20:52.247Z,100040.59
2023-01-12T02:23:59.048Z,100033.25
2023-01-12T02:27:08.819Z,100033.44
2023-01-12T02:30:01.303Z,100042.47
2023-01-12T02:32:39.603Z,100021.78
2023-01-12T02:35:18.100Z,100059.97
2023-01-12T02:37:51.890Z,100026.53
2023-01-12T02:40:24.732Z,100059.44
2023-01-12T02:43:02.750Z,100047.03
2023-01-12T02:45:39.588Z,100052.19
2023-01-12T02:48:15.261Z,100050.47
2023-01-12T02:50:50.955Z,100054.06
2023-01-12T02:53:24.266Z,100049.47
2023-01-12T02:55:53.351Z,100055.97
2023-01-12T02:58:25.303Z,100050.53
2023-01-12T03:00:58.828Z,100048.63
2023-01-12T03:03:28.301Z,100045.97
2023-01-12T03:05:57.314Z,100035.97
2023-01-12T03:08:29.009Z,100055.66
2023-01-12T03:11:08.175Z,100046.25
2023-01-12T03:13:40.615Z,100047.34
2023-01-12T03:16:11.909Z,100047.59
2023-01-12T03:18:45.656Z,100028.47
2023-01-12T03:21:19.678Z,100046.75
2023-01-12T03:23:50.395Z,100046.22
2023-01-12T03:26:23.159Z,100033.81
2023-01-12T03:28:57.112Z,100039.28
2023-01-12T03:31:25.657Z,100033.22
2023-01-12T03:33:55.573Z,100045.19
2023-01-12T03:36:32.561Z,100028.81
2023-01-12T03:39:07.228Z,100032.38
2023-01-12T03:41:44.344Z,100015.38
2023-01-12T03:44:18.840Z,100044.59
2023-01-12T03:46:55.153Z,100050.31
2023-01-12T03:49:32.850Z,100051.16
2023-01-12T03:52:03.167Z,100050.47
2023-01-12T03:54:33.285Z,100049.69
2023-01-12T03:57:02.941Z,100032.38
2023-01-12T03:59:30.871Z,100061.94
2023-01-12T04:01:59.251Z,100060.22
2023-01-12T04:04:28.485Z,100067.75
2023-01-12T04:06:56.558Z,100075.28
2023-01-12T04:09:25.817Z,100060.75
2023-01-12T04:12:12.216Z,100073.41
2023-01-12T04:14:41.292Z,100067.41
2023-01-12T04:17:10.465Z,100067.75
2023-01-12T04:19:39.685Z,100061.84
2023-01-12T04:22:25.718Z,100061.78
2023-01-12T04:24:53.704Z,100067.31
2023-01-12T04:27:21.561Z,100069.88
2023-01-12T04:29:49.391Z,100064.34
2023-01-12T04:32:17.269Z,100065.97
2023-01-12T04:34:47.075Z,100047.41
2023-01-12T04:37:15.181Z,100061.94
2023-01-12T04:39:43.092Z,100063.47
2023-01-12T04:42:30.994Z,100065.00
2023-01-12T04:44:58.835Z,100063.31
2023-01-12T04:47:26.703Z,100073.22
2023-01-12T04:49:55.888Z,100069.13
2023-01-12T04:52:23.723Z,100059.88
2023-01-12T04:54:51.580Z,100053.38
2023-01-12T04:57:19.443Z,100047.56
2023-01-12T04:59:47.359Z,100061.09
2023-01-12T05:02:15.469Z,100053.88
2023-01-12T05:04:43.663Z,100062.34
2023-01-12T05:07:12.911Z,100057.47
2023-01-12T05:09:58.079Z,100060.72
2023-01-12T05:12:25.932Z,100057.47
2023-01-12T05:14:53.761Z,100057.47
2023-01-12T05:17:21.649Z,100061.31
2023-01-12T05:19:49.685Z,100070.53
2023-01-12T05:22:18.893Z,100067.47
2023-01-12T05:24:46.783Z,100077.47
2023-01-12T05:27:14.602Z,100075.06
2023-01-12T05:29:42.559Z,100079.34
2023-01-12T05:32:10.811Z,100082.78
2023-01-12T05:34:38.629Z,100079.34
2023-01-12T05:37:06.534Z,100073.19
2023-01-12T05:39:36.052Z,100088.00
2023-01-12T05:42:21.272Z,100070.16
2023-01-12T05:44:49.186Z,100080.28
2023-01-12T05:47:17.125Z,100084.66
2023-01-12T05:49:45.009Z,100091.50
2023-01-12T05:52:12.831Z,100088.00
2023-01-12T05:54:42.051Z,100089.88
2023-01-12T05:57:09.938Z,100083.81
2023-01-12T05:59:37.813Z,100076.97
2023-01-12T06:02:05.722Z,100066.72
2023-01-12T06:04:33.681Z,100074.16
2023-01-12T06:07:01.579Z,100078.53
2023-01-12T06:09:29.483Z,100083.63
2023-01-12T06:12:16.189Z,100084.56
2023-01-12T06:14:44.099Z,100079.31
2023-01-12T06:17:11.961Z,100088.28
2023-01-12T06:19:40.038Z,100089.97
2023-01-12T06:22:08.406Z,100096.78
2023-01-12T06:24:36.273Z,100100.13
2023-01-12T06:27:05.547Z,100104.22
2023-01-12T06:29:33.385Z,100097.50
2023-01-12T06:32:01.304Z,100111.94
2023-01-12T06:34:34.675Z,100117.66
2023-01-12T06:37:03.036Z,100113.56
2023-01-12T06:39:31.139Z,100124.25
2023-01-12T06:42:16.710Z,100125.00
2023-01-12T06:44:47.664Z,100119.19
2023-01-12T06:47:16.928Z,100118.03
2023-01-12T06:49:44.862Z,100128.25
2023-01-12T06:52:12.740Z,100133.41
2023-01-12T06:54:40.730Z,100130.91
2023-01-12T06:57:08.694Z,100140.41
2023-01-12T06:59:38.839Z,100114.94
2023-01-12T07:02:12.179Z,100131.66
2023-01-12T07:04:40.446Z,100128.41
2023-01-12T07:07:09.510Z,100126.69
2023-01-12T07:09:37.785Z,100135.09
2023-01-12T07:12:06.394Z,100130.66
2023-01-12T07:14:34.342Z,100155.66
2023-01-12T07:17:02.211Z,100151.44
2023-01-12T07:19:31.467Z,100159.66
2023-01-12T07:21:59.298Z,100155.78
2023-01-12T07:24:27.203Z,100152.53
2023-01-12T07:26:58.099Z,100139.81
2023-01-12T07:29:25.998Z,100151.75
2023-01-12T07:31:53.965Z,100149.47
2023-01-12T07:34:22.416Z,100146.22
2023-01-12T07:36:52.174Z,100138.28
2023-01-12T07:39:20.237Z,100145.34
2023-01-12T07:42:20.405Z,100148.94
2023-01-12T07:44:48.291Z,100168.88
2023-01-12T07:47:16.220Z,100166.56
2023-01-12T07:49:44.129Z,100168.50
2023-01-12T07:52:13.754Z,100163.63
2023-01-12T07:54:41.693Z,100164.13
2023-01-12T07:57:11.906Z,100162.72
2023-01-12T07:59:39.814Z,100158.78
2023-01-12T08:02:08.079Z,100164.09
2023-01-12T08:04:36.053Z,100170.97
2023-01-12T08:07:04.035Z,100165.31
2023-01-12T08:09:33.339Z,100176.94
2023-01-12T08:12:01.203Z,100160.84
2023-01-12T08:14:33.315Z,100154.00
2023-01-12T08:17:03.553Z,100161.03
2023-01-12T08:19:38.551Z,100157.94
2023-01-12T08:22:11.063Z,100147.56
2023-01-12T08:24:44.988Z,100160.00
2023-01-12T08:27:13.055Z,100165.72
2023-01-12T08:29:44.943Z,100172.06
2023-01-12T08:32:17.752Z,100169.41
2023-01-12T08:34:49.181Z,100169.53
2023-01-12T08:37:22.138Z,100158.19
2023-01-12T08:40:28.283Z,100175.00
2023-01-12T08:42:57.632Z,100170.91
2023-01-12T08:45:25.523Z,100171.53
2023-01-12T08:47:53.458Z,100177.00
2023-01-12T08:50:21.425Z,100172.72
2023-01-12T08:52:49.618Z,100175.50
2023-01-12T08:55:18.863Z,100175.81
2023-01-12T08:57:46.957Z,100175.56
2023-01-12T09:00:15.956Z,100157.06
2023-01-12T09:02:43.839Z,100164.69
2023-01-12T09:05:11.925Z,100172.38
2023-01-12T09:07:40.775Z,100156.47
2023-01-12T09:10:09.658Z,100172.28
2023-01-12T09:12:38.959Z,100180.41
2023-01-12T09:15:08.141Z,100174.88
2023-01-12T09:17:36.044Z,100154.75
2023-01-12T09:20:04.167Z,100173.53
2023-01-12T09:22:32.016Z,100171.53
2023-01-12T09:24:59.848Z,100169.91
2023-01-12T09:27:27.698Z,100161.97
2023-01-12T09:29:57.116Z,100163.31
2023-01-12T09:32:29.156Z,100153.88
2023-01-12T09:35:03.943Z,100161.34
2023-01-12T09:37:32.969Z,100151.16
2023-01-12T09:40:00.854Z,100152.41
2023-01-12T09:42:46.295Z,100147.53
2023-01-12T09:45:38.905Z,100152.94
2023-01-12T09:48:09.714Z,100149.69
2023-01-12T09:50:40.461Z,100153.19
2023-01-12T09:53:14.971Z,100144.25
2023-01-12T09:55:48.982Z,100147.78
2023-01-12T09:58:39.292Z,100145.63
2023-01-12T10:01:24.197Z,100150.91
2023-01-12T10:03:57.375Z,100151.84
2023-01-12T10:06:25.360Z,100152.91
2023-01-12T10:08:57.997Z,100152.56
2023-01-12T10:11:34.481Z,100153.94
2023-01-12T10:14:26.919Z,100150.97
2023-01-12T10:17:07.823Z,100158.28
2023-01-12T10:19:45.217Z,100148.72
2023-01-12T10:22:37.028Z,100152.56
2023-01-12T10:25:22.554Z,100142.78
2023-01-12T10:27:52.620Z,100149.66
2023-01-12T10:30:25.805Z,100141.06
2023-01-12T10:32:55.065Z,100153.88
2023-01-12T10:35:25.324Z,100146.00
2023-01-12T10:37:54.922Z,100144.56
2023-01-12T10:40:27.836Z,100146.41
2023-01-12T10:43:22.285Z,100158.63
2023-01-12T10:46:06.112Z,100165.38
2023-01-12T10:48:35.739Z,100159.63
2023-01-12T10:51:05.636Z,100150.19
2023-01-12T10:53:39.506Z,100145.75
2023-01-12T10:56:24.776Z,100152.91
2023-01-12T10:58:58.830Z,100150.88
2023-01-12T11:01:26.879Z,100150.03
2023-01-12T11:04:06.009Z,100139.09
2023-01-12T11:06:33.944Z,100126.66
2023-01-12T11:09:18.887Z,100124.72
2023-01-12T11:11:46.941Z,100127.59
2023-01-12T11:14:24.849Z,100115.94
2023-01-12T11:16:53.027Z,100108.63
2023-01-12T11:19:28.347Z,100098.28
2023-01-12T11:22:01.510Z,100108.38
2023-01-12T11:24:39.237Z,100090.69
2023-01-12T11:27:17.561Z,100092.06
2023-01-12T11:29:55.269Z,100097.66
2023-01-12T11:32:36.871Z,100081.66
2023-01-12T11:35:29.083Z,100083.13
2023-01-12T11:38:00.917Z,100074.69
2023-01-12T11:40:32.696Z,100075.69
2023-01-12T11:43:24.644Z,100079.75
2023-01-12T11:45:56.036Z,100069.75
2023-01-12T11:48:31.799Z,100060.50
2023-01-12T11:51:01.808Z,100065.31
2023-01-12T11:53:29.749Z,100061.13
2023-01-12T11:56:09.335Z,100058.50
2023-01-12T11:58:50.218Z,100058.50
2023-01-12T12:01:25.577Z,100058.34
2023-01-12T12:03:59.935Z,100062.47
2023-01-12T12:06:57.430Z,100039.59
2023-01-12T12:10:00.711Z,100059.63
2023-01-12T12:12:42.693Z,100055.50
2023-01-12T12:15:27.693Z,100054.81
2023-01-12T12:18:12.572Z,100058.94
2023-01-12T12:20:46.297Z,100047.97
2023-01-12T12:23:27.398Z,100057.94
2023-01-12T12:26:03.679Z,100056.22
2023-01-12T12:28:48.330Z,100050.41
2023-01-12T12:31:33.507Z,100050.47
2023-01-12T12:34:19.908Z,100036.47
2023-01-12T12:36:54.853Z,100040.75
2023-01-12T12:39:43.866Z,100036.75
2023-01-12T12:42:49.387Z,100036.88
2023-01-12T12:45:28.336Z,100033.84
2023-01-12T12:48:01.717Z,100029.88
2023-01-12T12:50:32.733Z,100035.91
2023-01-12T12:53:12.026Z,100028.50
2023-01-12T12:55:42.896Z,100027.44
2023-01-12T12:58:27.476Z,100025.97
2023-01-12T13:00:56.861Z,100019.84
2023-01-12T13:03:47.033Z,100020.38
2023-01-12T13:06:21.035Z,100014.13
2023-01-12T13:08:50.944Z,100016.13
2023-01-12T13:11:21.371Z,99989.28
2023-01-12T13:14:17.598Z,100003.38
2023-01-12T13:16:51.755Z,99994.56
2023-01-12T13:19:38.053Z,99989.72
2023-01-12T13:22:28.507Z,100002.97
2023-01-12T13:24:57.221Z,99993.91
2023-01-12T13:27:55.548Z,99988.34
2023-01-12T13:30:38.613Z,99973.19
2023-01-12T13:33:23.865Z,99981.97
2023-01-12T13:36:11.728Z,99985.94
2023-01-12T13:39:02.682Z,99982.25
2023-01-12T13:41:50.062Z,99979.41
2023-01-12T13:44:25.387Z,99967.91
2023-01-12T13:47:02.390Z,99964.13
2023-01-12T13:49:32.939Z,99961.34
2023-01-12T13:52:02.921Z,99960.38
2023-01-12T13:54:31.340Z,99963.38
2023-01-12T13:57:01.202Z,99964.50
2023-01-12T13:59:31.010Z,99965.53
2023-01-12T14:01:59.078Z,99971.69
2023-01-12T14:04:46.002Z,99968.44
2023-01-12T14:07:25.193Z,99968.44
2023-01-12T14:10:06.913Z,99958.34
2023-01-12T14:12:46.682Z,99961.06
2023-01-12T14:15:45.513Z,99962.19
2023-01-12T14:18:16.196Z,99967.47
2023-01-12T14:20:49.661Z,99964.69
2023-01-12T14:23:23.877Z,99963.91
2023-01-12T14:26:14.615Z,99970.72
2023-01-12T14:28:44.157Z,99963.91
2023-01-12T14:31:23.095Z,99967.59
2023-01-12T14:33:53.573Z,99961.44
2023-01-12T14:36:25.443Z,99966.25
2023-01-12T14:38:54.388Z,99968.72
2023-01-12T14:41:42.417Z,99965.25
2023-01-12T14:44:36.445Z,99970.88
2023-01-12T14:47:06.696Z,99967.97
2023-01-12T14:49:36.628Z,99963.63
2023-01-12T14:52:23.072Z,99961.63
2023-01-12T14:54:52.095Z,99966.06
2023-01-12T14:57:24.138Z,99962.06
2023-01-12T14:59:52.532Z,99958.53
2023-01-12T15:02:36.652Z,99967.56
2023-01-12T15:05:18.847Z,99961.66
2023-01-12T15:07:55.732Z,99964.84
2023-01-12T15:10:30.530Z,99960.59
2023-01-12T15:13:00.477Z,99961.03
2023-01-12T15:15:50.992Z,99966.25
2023-01-12T15:18:37.581Z,99953.63
2023-01-12T15:21:23.514Z,99963.97
2023-01-12T15:24:09.421Z,99956.16
2023-01-12T15:26:37.320Z,99973.59
2023-01-12T15:29:05.182Z,99965.09
2023-01-12T15:31:35.886Z,99974.66
2023-01-12T15:34:06.684Z,99973.38
2023-01-12T15:36:34.492Z,99970.41
2023-01-12T15:39:02.289Z,99959.53
2023-01-12T15:41:49.950Z,99989.69
2023-01-12T15:44:19.654Z,99997.69
2023-01-12T15:46:48.283Z,99990.88
2023-01-12T15:49:17.734Z,99993.44
2023-01-12T15:51:48.935Z,99994.63
2023-01-12T15:54:19.011Z,99988.13
2023-01-12T15:56:47.887Z,99982.38
2023-01-12T15:59:16.469Z,99982.38
2023-01-12T16:01:47.925Z,99985.22
2023-01-12T16:07:06.812Z,99988.47
2023-01-12T16:09:34.743Z,99990.53
2023-01-12T16:12:02.832Z,99995.25
2023-01-12T16:14:30.648Z,99997.44
2023-01-12T16:16:58.466Z,99996.16
2023-01-12T16:19:28.215Z,99997.31
2023-01-12T16:21:56.143Z,99983.97
2023-01-12T16:24:26.628Z,99982.34
2023-01-12T16:26:54.881Z,99995.72
2023-01-12T16:29:23.932Z,99993.53
2023-01-12T16:31:52.047Z,99988.41
2023-01-12T16:34:22.713Z,99982.22
2023-01-12T16:36:52.277Z,99994.13
2023-01-12T16:39:20.155Z,99987.94
2023-01-12T16:41:49.079Z,99974.56
2023-01-12T16:44:16.982Z,99974.34
2023-01-12T16:46:44.842Z,99990.22
2023-01-12T16:49:12.648Z,99986.25
2023-01-12T16:51:40.527Z,99989.75
2023-01-12T16:54:09.733Z,99982.00
2023-01-12T16:56:37.608Z,99987.78
2023-01-12T16:59:05.579Z,99990.13
2023-01-12T17:01:33.539Z,99997.38
2023-01-12T17:04:02.493Z,99997.69
2023-01-12T17:06:31.225Z,99995.69
2023-01-12T17:09:02.220Z,99995.66
2023-01-12T17:11:32.749Z,99987.19
2023-01-12T17:14:00.821Z,99982.66
2023-01-12T17:16:29.413Z,99969.69
2023-01-12T17:18:57.423Z,99980.00
2023-01-12T17:21:25.511Z,99976.16
2023-01-12T17:23:53.510Z,99976.41
2023-01-12T17:26:21.590Z,99973.22
2023-01-12T17:28:50.895Z,99970.81
2023-01-12T17:31:20.582Z,99970.03
2023-01-12T17:33:50.057Z,99967.38
2023-01-12T17:36:18.787Z,99963.13
2023-01-12T17:38:46.649Z,99960.72
2023-01-12T17:41:30.436Z,99970.66
2023-01-12T17:44:01.694Z,99965.84
2023-01-12T17:46:29.915Z,99961.63
2023-01-12T17:48:58.783Z,99966.69
2023-01-12T17:51:27.076Z,99954.19
2023-01-12T17:53:55.040Z,99958.22
2023-01-12T17:56:23.066Z,99948.75
2023-01-12T17:58:51.418Z,99952.69
2023-01-12T18:01:21.787Z,99956.88
2023-01-12T18:03:49.845Z,99956.94
2023-01-12T18:06:25.972Z,99960.41
2023-01-12T18:08:56.720Z,99929.28
2023-01-12T18:11:24.860Z,99962.59
2023-01-12T18:13:53.188Z,99963.75
2023-01-12T18:16:22.983Z,99959.47
2023-01-12T18:18:51.314Z,99958.19
2023-01-12T18:21:21.563Z,99961.25
2023-01-12T18:23:50.212Z,99960.56
2023-01-12T18:26:20.932Z,99962.09
2023-01-12T18:28:49.035Z,99951.84
2023-01-12T18:31:19.007Z,99955.81
2023-01-12T18:33:49.082Z,99945.97
2023-01-12T18:36:20.792Z,99936.53
2023-01-12T18:38:50.939Z,99939.69
2023-01-12T18:41:37.893Z,99938.75
2023-01-12T18:44:06.379Z,99953.91
2023-01-12T18:46:49.321Z,99955.97
2023-01-12T18:49:22.528Z,99969.16
2023-01-12T18:52:08.028Z,99959.53
2023-01-12T18:54:36.309Z,99968.47
2023-01-12T18:57:04.387Z,99969.31
2023-01-12T18:59:33.267Z,99974.28
2023-01-12T19:02:01.256Z,99968.22
2023-01-12T19:04:49.139Z,99966.59
2023-01-12T19:07:19.124Z,99960.94
2023-01-12T19:09:47.816Z,99960.59
2023-01-12T19:12:15.701Z,99966.75
2023-01-12T19:14:57.609Z,99962.31
2023-01-12T19:17:29.713Z,99969.63
2023-01-12T19:20:00.650Z,99959.38
2023-01-12T19:22:46.657Z,99951.25
2023-01-12T19:25:33.671Z,99958.91
2023-01-12T19:28:19.353Z,99957.50
2023-01-12T19:30:47.955Z,99964.44
2023-01-12T19:33:16.242Z,99971.19
2023-01-12T19:35:47.216Z,99967.94
2023-01-12T19:38:15.929Z,99967.94
2023-01-12T19:40:47.741Z,99960.47
2023-01-12T19:43:19.706Z,99958.00
2023-01-12T19:45:49.606Z,99959.03
2023-01-12T19:48:20.632Z,99956.91
2023-01-12T19:50:50.191Z,99943.28
2023-01-12T19:53:20.755Z,99952.88
2023-01-12T19:55:49.875Z,99937.22
2023-01-12T19:58:18.098Z,99941.38
2023-01-12T20:00:46.539Z,99962.56
2023-01-12T20:03:16.128Z,99949.63
2023-01-12T20:05:47.191Z,99959.72
2023-01-12T20:08:16.580Z,99959.72
2023-01-12T20:10:45.149Z,99963.13
2023-01-12T20:13:14.748Z,99955.13
2023-01-12T20:15:43.424Z,99956.09
2023-01-12T20:18:13.686Z,99947.59
2023-01-12T20:20:42.705Z,99952.41
2023-01-12T20:23:11.506Z,99953.38
2023-01-12T20:25:42.162Z,99937.03
2023-01-12T20:28:13.106Z,99930.53
2023-01-12T20:30:41.650Z,99946.97
2023-01-12T20:33:10.305Z,99941.88
2023-01-12T20:35:39.248Z,99940.63
2023-01-12T20:38:13.148Z,99937.13
2023-01-12T20:40:42.497Z,99933.88
2023-01-12T20:43:10.440Z,99923.94
2023-01-12T20:45:38.309Z,99918.91
2023-01-12T20:48:06.167Z,99921.03
2023-01-12T20:50:33.985Z,99916.34
2023-01-12T20:53:01.883Z,99906.63
2023-01-12T20:55:29.799Z,99899.19
2023-01-12T20:57:59.131Z,99911.28
2023-01-12T21:00:28.707Z,99903.19
2023-01-12T21:02:56.501Z,99913.97
2023-01-12T21:05:24.625Z,99908.16
2023-01-12T21:08:00.057Z,99909.69
2023-01-12T21:10:34.986Z,99911.91
2023-01-12T21:13:04.575Z,99913.94
2023-01-12T21:15:32.679Z,99919.97
2023-01-12T21:18:00.648Z,99904.41
2023-01-12T21:20:28.599Z,99917.41
2023-01-12T21:22:56.559Z,99912.63
2023-01-12T21:25:27.855Z,99903.22
2023-01-12T21:27:56.243Z,99898.41
2023-01-12T21:30:35.394Z,99905.44
2023-01-12T21:33:04.459Z,99901.53
2023-01-12T21:35:32.529Z,99909.03
2023-01-12T21:38:00.455Z,99904.69
2023-01-12T21:40:28.591Z,99907.66
2023-01-12T21:43:13.086Z,99904.44
2023-01-12T21:45:47.500Z,99880.81
2023-01-12T21:48:17.467Z,99906.72
2023-01-12T21:50:45.490Z,99886.16
2023-01-12T21:53:15.561Z,99902.25
2023-01-12T21:55:43.571Z,99892.28
2023-01-12T21:58:11.441Z,99885.72
2023-01-12T22:00:39.307Z,99881.50
2023-01-12T22:03:08.585Z,99890.00
2023-01-12T22:05:36.489Z,99899.22
2023-01-12T22:08:04.500Z,99902.56
2023-01-12T22:10:32.379Z,99896.81
2023-01-12T22:13:02.900Z,99903.47
2023-01-12T22:15:31.852Z,99886.47
2023-01-12T22:18:00.661Z,99900.22
2023-01-12T22:20:29.933Z,99896.88
2023-01-12T22:22:58.014Z,99898.53
2023-01-12T22:25:27.183Z,99894.81
2023-01-12T22:27:58.156Z,99899.50
2023-01-12T22:30:26.105Z,99902.75
2023-01-12T22:32:55.609Z,99889.09
2023-01-12T22:35:26.393Z,99900.13
2023-01-12T22:37:55.975Z,99899.28
2023-01-12T22:40:23.830Z,99892.81
2023-01-12T22:43:09.117Z,99884.00
2023-01-12T22:45:37.597Z,99887.13
2023-01-12T22:48:06.223Z,99889.81
2023-01-12T22:50:34.154Z,99887.47
2023-01-12T22:53:03.443Z,99887.63
2023-01-12T22:55:31.504Z,99877.06
2023-01-12T22:57:59.490Z,99887.34
2023-01-12T23:00:27.300Z,99876.78
2023-01-12T23:03:01.769Z,99878.50
2023-01-12T23:05:33.279Z,99872.81
2023-01-12T23:08:01.580Z,99878.66
2023-01-12T23:10:30.927Z,99853.25
2023-01-12T23:13:15.618Z,99862.97
2023-01-12T23:15:46.676Z,99865.31
2023-01-12T23:18:15.511Z,99867.78
2023-01-12T23:20:43.585Z,99867.94
2023-01-12T23:23:12.273Z,99875.47
2023-01-12T23:25:44.337Z,99872.13
2023-01-12T23:28:13.872Z,99875.38
2023-01-12T23:30:42.161Z,99873.75
2023-01-12T23:33:10.670Z,99878.66
2023-01-12T23:35:40.499Z,99869.84
2023-01-12T23:38:09.329Z,99852.31
2023-01-12T23:40:37.154Z,99857.44
2023-01-12T23:43:06.277Z,99855.06
2023-01-12T23:45:34.474Z,99825.41
2023-01-12T23:48:02.321Z,99851.69
2023-01-12T23:50:30.106Z,99850.69
2023-01-12T23:52:57.865Z,99857.91
2023-01-12T23:55:26.940Z,99852.94
2023-01-12T23:57:54.878Z,99849.53
